Time;durP1;ratioP1;P1;durP2;ratioP2;P2;SDS_P1;SDS_P2;PMS_P1;PMS_P2;Temp;Humidity;BMP_temperature;BMP_pressure;BME280_temperature;BME280_humidity;BME280_pressure;Samples;Min_cycle;Max_cycle;Signal;HPM_P1;HPM_P2
2021/04/23 00:01:31;;;;;;;10.55;4.50;;;5.40;64.50;;;4.52;48.23;95465.63;5016552;28;20254;-80
2021/04/23 00:04:04;;;;;;;11.52;5.03;;;5.40;64.50;;;4.46;47.86;95456.63;5015139;28;20197;-79
2021/04/23 00:06:40;;;;;;;13.18;4.90;;;5.40;64.60;;;4.44;48.10;95467.16;5046325;28;20258;-80
2021/04/23 00:09:23;;;;;;;10.35;4.78;;;5.40;64.60;;;4.40;47.93;95459.78;5034787;28;20199;-80
2021/04/23 00:11:52;;;;;;;6.00;4.20;;;5.40;64.70;;;4.36;47.91;95458.41;5066269;28;20634;-80
2021/04/23 00:14:26;;;;;;;10.27;4.28;;;5.40;64.50;;;4.30;47.96;95467.59;5050323;28;20238;-80
2021/04/23 00:16:53;;;;;;;9.00;4.20;;;5.30;64.50;;;4.25;48.34;95469.81;5045253;28;20224;-80
2021/04/23 00:19:23;;;;;;;8.00;4.10;;;5.30;64.40;;;4.21;48.16;95476.22;5005934;28;20704;-80
2021/04/23 00:21:52;;;;;;;8.10;4.05;;;5.20;64.50;;;4.13;48.13;95469.94;5014648;28;20653;-80
2021/04/23 00:24:20;;;;;;;7.53;4.38;;;5.20;64.40;;;4.09;48.60;95463.38;5051353;28;20192;-78
2021/04/23 00:26:47;;;;;;;12.88;4.85;;;5.20;64.60;;;4.07;48.64;95465.28;5034105;28;20216;-80
2021/04/23 00:29:15;;;;;;;9.75;4.50;;;5.10;64.50;;;4.01;48.60;95461.47;5027719;28;20678;-80
2021/04/23 00:34:31;;;;;;;10.75;4.25;;;5.00;64.70;;;3.89;48.38;95461.75;5017142;28;20215;-80
2021/04/23 00:36:58;;;;;;;8.45;4.32;;;5.00;64.60;;;3.87;48.77;95468.84;5047624;28;20627;-80
2021/04/23 00:39:25;;;;;;;10.98;4.55;;;4.90;64.60;;;3.80;48.93;95469.38;5015391;28;20209;-79
2021/04/23 00:41:52;;;;;;;10.25;4.45;;;4.90;64.80;;;3.76;49.23;95467.19;5030834;28;20327;-80
2021/04/23 00:44:19;;;;;;;8.77;3.92;;;4.90;64.80;;;3.74;48.69;95472.53;5031597;28;20205;-80
2021/04/23 00:46:46;;;;;;;10.20;4.28;;;4.80;64.70;;;3.70;48.83;95468.56;5048245;28;20690;-79
2021/04/23 00:49:13;;;;;;;13.18;4.50;;;4.70;64.70;;;3.69;48.80;95466.94;5025693;28;20203;-80
2021/04/23 00:51:50;;;;;;;9.73;4.55;;;4.70;64.80;;;3.64;49.24;95471.72;5030515;28;20189;-80
2021/04/23 00:54:17;;;;;;;8.82;5.00;;;4.70;65.00;;;3.67;50.11;95469.66;5031216;28;20311;-79
2021/04/23 00:56:44;;;;;;;8.65;4.60;;;4.70;65.20;;;3.71;50.15;95469.38;5016047;28;20212;-80
2021/04/23 00:59:16;;;;;;;10.55;4.72;;;4.70;66.20;;;3.76;49.29;95468.03;5035233;28;20187;-81
2021/04/23 01:01:54;;;;;;;6.82;4.22;;;4.60;65.50;;;3.76;49.33;95468.03;5046553;28;20220;-80
2021/04/23 01:04:22;;;;;;;8.80;4.90;;;4.70;65.70;;;3.75;48.95;95468.97;5016087;28;20189;-79
2021/04/23 01:06:49;;;;;;;9.70;4.47;;;4.60;65.20;;;3.69;49.23;95454.78;5033844;28;20238;-80
2021/04/23 01:09:25;;;;;;;9.90;3.95;;;4.70;65.20;;;3.75;49.54;95465.56;5047422;28;20565;-79
2021/04/23 01:11:55;;;;;;;10.57;4.57;;;4.70;65.60;;;3.76;49.28;95467.19;5047358;28;20698;-80
2021/04/23 01:14:21;;;;;;;9.73;4.50;;;4.70;65.50;;;3.77;49.47;95468.84;5031352;28;20280;-80
2021/04/23 01:16:48;;;;;;;9.30;4.50;;;4.70;65.30;;;3.77;49.90;95472.28;5032450;28;20637;-80
2021/04/23 01:19:21;;;;;;;9.13;4.82;;;4.70;65.50;;;3.82;49.96;95472.69;5050871;28;20204;-80
2021/04/23 01:21:49;;;;;;;7.82;5.03;;;4.70;65.60;;;3.85;50.44;95471.59;5032258;28;20232;-80
2021/04/23 01:24:20;;;;;;;11.45;4.75;;;4.70;65.80;;;3.89;50.70;95477.31;5020103;28;20234;-80
2021/04/23 01:26:52;;;;;;;8.43;4.70;;;4.80;65.90;;;3.90;50.89;95482.38;5010664;28;20212;-80
2021/04/23 01:29:22;;;;;;;10.63;4.75;;;4.80;66.10;;;3.96;50.21;95484.41;5033401;28;20196;-80
2021/04/23 01:31:55;;;;;;;11.13;4.50;;;4.80;66.00;;;3.96;50.03;95474.03;5048616;28;20262;-80
2021/04/23 01:34:31;;;;;;;11.20;5.15;;;4.80;65.90;;;3.95;50.05;95477.59;5029237;28;20199;-80
2021/04/23 01:37:01;;;;;;;8.57;4.40;;;4.80;66.00;;;3.93;49.94;95484.69;5023206;28;20296;-79
2021/04/23 01:39:31;;;;;;;7.90;4.57;;;4.90;65.90;;;3.87;50.18;95477.47;5025785;28;20242;-80
2021/04/23 01:41:59;;;;;;;11.80;4.78;;;4.90;66.00;;;3.80;50.70;95474.59;5017800;28;20235;-80
2021/04/23 01:44:28;;;;;;;13.88;5.70;;;4.80;65.90;;;3.77;50.94;95474.88;5033437;28;20613;-80
2021/04/23 01:46:55;;;;;;;9.40;4.93;;;4.80;66.10;;;3.76;50.58;95480.16;5018322;28;20721;-78
2021/04/23 01:49:23;;;;;;;12.57;5.18;;;4.80;65.90;;;3.74;50.08;95488.09;5035260;28;20200;-79
2021/04/23 01:51:58;;;;;;;11.43;4.70;;;4.70;66.00;;;3.72;50.30;95486.59;5017635;28;20224;-79
2021/04/23 01:54:27;;;;;;;12.18;5.28;;;4.70;65.90;;;3.64;51.39;95484.69;5017798;28;20200;-79
2021/04/23 01:56:55;;;;;;;12.05;5.35;;;4.70;66.20;;;3.66;51.60;95482.75;5008823;28;20247;-79
2021/04/23 01:59:24;;;;;;;14.30;5.28;;;4.70;66.40;;;3.61;51.66;95488.34;5032531;28;20255;-79
2021/04/23 02:01:52;;;;;;;14.18;5.38;;;4.70;66.50;;;3.61;51.76;95492.72;5001195;28;20672;-79
2021/04/23 02:04:20;;;;;;;12.05;5.63;;;4.60;66.60;;;3.51;52.57;95475.34;5040652;28;20246;-79
2021/04/23 02:06:47;;;;;;;8.55;5.32;;;4.60;66.70;;;3.53;52.12;95491.63;5037099;28;20315;-79
2021/04/23 02:09:15;;;;;;;14.40;6.05;;;4.60;66.80;;;3.52;52.57;95492.56;5020555;28;20605;-80
2021/04/23 02:11:45;;;;;;;12.32;6.03;;;4.60;66.90;;;3.50;52.71;95493.66;5037017;28;20306;-80
2021/04/23 02:14:13;;;;;;;12.68;6.10;;;4.50;67.00;;;3.45;53.09;95499.22;5036005;28;20200;-79
2021/04/23 02:16:40;;;;;;;13.30;5.75;;;4.50;67.20;;;3.44;53.37;95489.84;5037071;28;20219;-79
2021/04/23 02:19:10;;;;;;;15.10;6.45;;;4.60;67.40;;;3.42;53.76;95499.50;5025735;28;20614;-80
2021/04/23 02:21:38;;;;;;;12.65;6.53;;;4.50;67.70;;;3.41;53.99;95499.66;5017268;28;20228;-79
2021/04/23 02:24:07;;;;;;;13.98;6.28;;;4.50;67.80;;;3.38;53.69;95505.09;5020126;28;20201;-78
2021/04/23 02:26:36;;;;;;;15.85;6.18;;;4.40;67.70;;;3.35;53.60;95501.81;5020720;28;20559;-79
2021/04/23 02:29:07;;;;;;;8.30;5.22;;;4.40;67.70;;;3.35;53.40;95501.00;5036753;28;20596;-79
2021/04/23 02:31:38;;;;;;;16.63;5.60;;;4.40;67.70;;;3.32;53.40;95501.25;5004040;28;20196;-80
2021/04/23 02:34:10;;;;;;;9.63;5.78;;;4.40;67.70;;;3.26;54.21;95500.03;5034594;28;20671;-78
2021/04/23 02:36:39;;;;;;;11.30;6.15;;;4.30;67.80;;;3.25;53.65;95505.31;5049640;28;20732;-79
2021/04/23 02:39:11;;;;;;;13.13;6.00;;;4.30;67.90;;;3.24;53.68;95498.50;5016857;28;20211;-79
2021/04/23 02:41:40;;;;;;;10.38;5.78;;;4.30;68.00;;;3.20;53.69;95495.38;5006689;28;20320;-79
2021/04/23 02:44:07;;;;;;;12.70;6.25;;;4.30;67.90;;;3.18;53.52;95498.06;5027481;28;20249;-79
2021/04/23 02:46:36;;;;;;;10.50;5.63;;;4.20;67.70;;;3.14;52.88;95503.66;5035176;28;20204;-79
2021/04/23 02:49:05;;;;;;;13.77;5.07;;;4.20;67.60;;;3.07;52.81;95502.53;5042147;28;20279;-78
2021/04/23 02:51:37;;;;;;;9.70;5.55;;;4.20;67.50;;;3.00;53.58;95500.47;5040650;28;20189;-79
2021/04/23 02:54:05;;;;;;;8.90;5.22;;;4.10;67.60;;;2.98;52.78;95501.53;5031736;28;20201;-79
2021/04/23 02:56:32;;;;;;;7.93;5.20;;;4.10;67.40;;;2.94;52.57;95507.94;5025045;28;20203;-79
2021/04/23 02:59:01;;;;;;;11.65;5.30;;;4.00;67.40;;;2.86;53.23;95496.44;5034715;28;20258;-79
2021/04/23 03:01:39;;;;;;;10.55;5.90;;;4.00;67.50;;;2.85;52.70;95505.16;5028848;28;20321;-79
2021/04/23 03:04:07;;;;;;;13.48;5.60;;;3.90;67.60;;;2.82;52.62;95499.41;5032515;28;20631;-80
2021/04/23 03:06:34;;;;;;;9.60;5.35;;;3.90;67.40;;;2.78;52.50;95505.81;5032334;28;20207;-79
2021/04/23 03:09:04;;;;;;;11.18;5.45;;;3.90;67.40;;;2.70;52.41;95496.91;5032197;28;20603;-79
2021/04/23 03:11:30;;;;;;;11.02;5.05;;;3.80;67.30;;;2.67;52.44;95504.13;5021236;28;20224;-79
2021/04/23 03:13:59;;;;;;;10.48;4.60;;;3.80;67.30;;;2.64;52.63;95507.00;5025216;28;20193;-78
2021/04/23 03:16:28;;;;;;;10.60;5.38;;;3.80;67.30;;;2.61;52.68;95502.84;5039389;28;20208;-79
2021/04/23 03:18:56;;;;;;;15.10;5.70;;;3.70;67.50;;;2.60;52.87;95498.66;5032502;28;20682;-78
2021/04/23 03:21:27;;;;;;;9.88;4.78;;;3.70;67.60;;;2.61;52.60;95502.06;5047607;28;20295;-79
2021/04/23 03:23:56;;;;;;;7.75;4.70;;;3.70;68.70;;;2.60;52.10;95503.84;5030047;28;20565;-79
2021/04/23 03:26:24;;;;;;;14.02;5.88;;;3.60;67.50;;;2.58;52.58;95500.53;5032743;28;20609;-79
2021/04/23 03:28:51;;;;;;;14.13;5.45;;;3.60;67.60;;;2.55;52.42;95501.63;5050181;28;20204;-80
2021/04/23 03:31:19;;;;;;;10.43;5.32;;;3.60;67.60;;;2.56;52.70;95502.44;5047204;28;20196;-79
2021/04/23 03:33:46;;;;;;;11.43;5.50;;;3.60;67.70;;;2.54;52.71;95505.16;5030326;28;20200;-79
2021/04/23 03:36:14;;;;;;;9.10;4.65;;;3.60;67.80;;;2.52;52.36;95506.22;5022084;28;20192;-79
2021/04/23 03:38:45;;;;;;;10.75;4.88;;;3.50;67.60;;;2.46;52.65;95502.38;5014122;28;20221;-79
2021/04/23 03:41:29;;;;;;;12.18;5.55;;;3.50;67.70;;;2.42;52.54;95507.91;5033678;28;20210;-79
2021/04/23 03:43:57;;;;;;;10.95;4.88;;;3.60;68.00;;;2.42;53.47;95506.16;5051744;28;20407;-79
2021/04/23 03:46:24;;;;;;;8.77;5.38;;;3.50;67.90;;;2.44;52.73;95514.66;5039090;28;20270;-78
2021/04/23 03:48:52;;;;;;;10.95;4.97;;;3.50;68.00;;;2.44;52.39;95509.47;5039253;28;20713;-79
2021/04/23 03:51:23;;;;;;;11.35;5.00;;;3.50;68.00;;;2.44;52.84;95512.06;5051094;28;20238;-78
2021/04/23 03:53:51;;;;;;;12.15;5.63;;;3.40;68.00;;;2.44;53.12;95508.63;5048087;28;20193;-78
2021/04/23 03:56:20;;;;;;;11.20;6.20;;;3.50;68.20;;;2.42;53.17;95507.91;5040010;28;20719;-79
2021/04/23 03:58:47;;;;;;;11.07;5.00;;;3.40;68.10;;;2.48;53.10;95520.34;5040275;28;20296;-79
2021/04/23 04:01:23;;;;;;;9.77;5.03;;;3.40;68.00;;;2.48;53.55;95516.03;5023281;28;20657;-80
2021/04/23 04:03:52;;;;;;;7.78;5.15;;;3.40;68.40;;;2.51;53.08;95520.94;5025843;28;20606;-79
2021/04/23 04:06:23;;;;;;;8.95;4.32;;;3.50;68.20;;;2.53;52.76;95524.22;5039804;28;20786;-78
2021/04/23 04:08:49;;;;;;;10.52;5.63;;;3.50;68.20;;;2.56;53.83;95526.56;5030084;28;20193;-80
2021/04/23 04:11:17;;;;;;;11.15;5.32;;;3.50;68.50;;;2.59;53.16;95522.06;5013478;28;20205;-79
2021/04/23 04:13:44;;;;;;;8.90;5.10;;;3.60;68.50;;;2.66;53.18;95530.97;5015022;28;20220;-78
2021/04/23 04:16:11;;;;;;;10.45;4.95;;;3.50;68.40;;;2.70;53.33;95522.00;5048572;28;20278;-80
2021/04/23 04:18:38;;;;;;;8.57;4.68;;;3.60;68.60;;;2.74;52.92;95525.97;5032591;28;20220;-79
2021/04/23 04:21:05;;;;;;;9.73;5.07;;;3.60;68.50;;;2.78;53.00;95524.75;5049442;28;20191;-79
2021/04/23 04:23:32;;;;;;;10.88;4.93;;;3.60;68.50;;;2.81;53.26;95526.31;5031651;28;20255;-78
2021/04/23 04:26:02;;;;;;;9.65;5.05;;;3.70;68.60;;;2.84;53.33;95524.25;5028821;28;20521;-81
2021/04/23 04:28:31;;;;;;;15.20;4.90;;;3.70;68.60;;;2.88;53.58;95519.63;5047059;28;20597;-79
2021/04/23 04:30:59;;;;;;;10.38;5.50;;;3.70;68.70;;;2.95;53.18;95523.34;5029200;28;20231;-80
2021/04/23 04:33:46;;;;;;;9.30;4.50;;;3.80;68.80;;;3.03;53.30;95517.53;5032497;28;20302;-80
2021/04/23 04:36:13;;;;;;;10.30;4.78;;;3.80;68.70;;;3.06;52.98;95519.03;5031087;28;20228;-80
2021/04/23 04:38:40;;;;;;;9.95;4.80;;;3.90;68.70;;;3.12;53.10;95521.91;5047694;28;20248;-80
2021/04/23 04:41:07;;;;;;;8.40;4.40;;;3.90;68.80;;;3.19;53.20;95528.22;5025847;28;20642;-80
2021/04/23 04:43:34;;;;;;;10.45;5.10;;;4.00;68.80;;;3.29;52.79;95524.84;5034272;28;20231;-80
2021/04/23 04:46:01;;;;;;;12.93;4.85;;;4.10;68.90;;;3.34;53.00;95535.66;5050842;28;20290;-80
2021/04/23 04:48:28;;;;;;;12.15;5.25;;;4.00;68.80;;;3.43;53.10;95537.47;5026578;28;20213;-81
2021/04/23 04:50:59;;;;;;;15.65;6.47;;;4.10;68.90;;;3.56;53.69;95539.81;5039351;28;20220;-81
2021/04/23 04:53:26;;;;;;;11.23;5.68;;;4.20;69.30;;;3.66;52.97;95537.22;5027093;28;20223;-80
2021/04/23 04:55:56;;;;;;;8.82;5.38;;;4.30;69.20;;;3.74;53.24;95539.97;5030959;28;20197;-80
2021/04/23 04:58:29;;;;;;;13.73;5.80;;;4.40;69.30;;;3.91;53.54;95554.09;5031172;28;20243;-79
2021/04/23 05:00:58;;;;;;;12.88;5.80;;;4.50;69.50;;;4.01;53.74;95554.09;5013425;28;20912;-80
2021/04/23 05:03:26;;;;;;;20.52;6.35;;;4.60;69.40;;;4.12;53.56;95546.16;5014419;28;20282;-80
2021/04/23 05:05:53;;;;;;;12.27;6.40;;;4.70;69.50;;;4.21;53.55;95551.50;5034007;28;20207;-80
2021/04/23 05:08:20;;;;;;;15.45;6.43;;;4.80;69.50;;;4.30;53.75;95561.09;5003206;28;20320;-80
2021/04/23 05:10:47;;;;;;;13.73;6.43;;;4.90;69.50;;;4.38;53.71;95563.00;5049064;28;20208;-80
2021/04/23 05:13:14;;;;;;;13.35;6.70;;;4.90;69.40;;;4.42;53.49;95562.59;5029292;28;20307;-79
2021/04/23 05:15:41;;;;;;;13.70;6.05;;;5.00;69.40;;;4.52;53.29;95575.56;5035074;28;20232;-79
2021/04/23 05:18:09;;;;;;;10.02;5.88;;;5.10;69.40;;;4.58;53.56;95577.59;5030819;28;20754;-79
2021/04/23 05:20:37;;;;;;;8.07;5.20;;;5.20;69.40;;;4.62;53.71;95584.16;5037939;28;20624;-80
2021/04/23 05:23:04;;;;;;;11.20;6.30;;;5.20;69.30;;;4.68;53.47;95582.00;5054395;28;20269;-79
2021/04/23 05:25:32;;;;;;;12.88;6.88;;;5.30;69.30;;;4.72;53.66;95578.16;5038171;28;20568;-80
2021/04/23 05:27:59;;;;;;;11.35;5.55;;;5.40;69.40;;;4.79;53.29;95584.44;5054388;28;20690;-79
2021/04/23 05:30:30;;;;;;;8.98;5.53;;;5.40;69.20;;;4.86;53.12;95587.28;5037804;28;20570;-79
2021/04/23 05:32:59;;;;;;;10.10;5.88;;;5.50;69.30;;;4.90;53.06;95588.66;5054271;28;20319;-79
2021/04/23 05:35:28;;;;;;;12.82;5.70;;;5.50;69.20;;;4.95;53.29;95589.03;5054210;28;20192;-79
2021/04/23 05:37:56;;;;;;;11.82;5.78;;;5.60;69.20;;;5.01;52.54;95592.88;5037490;28;20235;-78
2021/04/23 05:40:37;;;;;;;9.90;5.47;;;5.70;69.30;;;5.05;53.18;95594.22;5038073;28;20254;-79
2021/04/23 05:43:05;;;;;;;9.98;5.35;;;5.70;69.00;;;5.07;53.28;95598.31;5019372;28;20240;-79
2021/04/23 05:45:33;;;;;;;12.68;6.22;;;5.80;69.20;;;5.12;53.25;95592.72;5036185;28;20197;-79
2021/04/23 05:48:01;;;;;;;10.23;5.30;;;5.80;69.10;;;5.19;53.03;95595.53;5021736;28;20224;-79
2021/04/23 05:50:27;;;;;;;12.93;5.82;;;5.80;69.20;;;5.23;53.24;95599.53;5015634;28;20204;-79
2021/04/23 05:52:54;;;;;;;8.27;5.03;;;5.80;69.10;;;5.27;53.22;95599.09;5018646;28;20212;-78
2021/04/23 05:55:27;;;;;;;13.50;6.03;;;5.90;69.10;;;5.39;53.08;95607.53;5026621;28;20684;-79
2021/04/23 05:57:56;;;;;;;10.35;5.68;;;6.00;69.30;;;5.49;52.86;95614.50;5050960;28;20216;-79
2021/04/23 06:00:26;;;;;;;13.73;4.90;;;6.10;69.30;;;5.58;52.84;95608.44;5049635;28;20654;-79
2021/04/23 06:02:55;;;;;;;10.00;5.32;;;6.10;69.20;;;5.70;52.61;95616.88;5049795;28;20293;-79
2021/04/23 06:05:27;;;;;;;12.32;5.65;;;6.20;69.30;;;5.78;52.76;95616.97;5050026;28;20250;-79
2021/04/23 06:08:01;;;;;;;10.18;5.38;;;6.30;69.30;;;5.87;52.51;95617.88;5050359;28;20220;-77
2021/04/23 06:10:29;;;;;;;11.82;5.32;;;6.40;69.10;;;6.00;52.38;95615.78;5049923;28;20232;-79
2021/04/23 06:12:58;;;;;;;10.70;5.65;;;6.40;69.00;;;6.09;52.60;95617.53;5034486;28;20558;-78
2021/04/23 06:15:26;;;;;;;10.90;5.75;;;6.50;69.10;;;6.20;51.84;95616.50;5035190;28;20203;-79
2021/04/23 06:17:56;;;;;;;11.18;5.10;;;6.60;69.80;;;6.31;51.64;95617.25;5051812;28;20251;-78
2021/04/23 06:20:28;;;;;;;7.88;4.78;;;6.70;68.80;;;6.41;51.75;95618.81;5051526;28;20714;-78
2021/04/23 06:22:56;;;;;;;13.05;4.38;;;6.80;68.80;;;6.55;51.69;95616.66;5034831;28;20874;-78
2021/04/23 06:25:23;;;;;;;10.27;5.00;;;6.90;68.70;;;6.61;51.33;95616.06;5066689;28;20204;-79
2021/04/23 06:27:51;;;;;;;12.10;5.00;;;7.00;68.60;;;6.73;50.97;95616.66;5052887;28;20693;-78
2021/04/23 06:30:32;;;;;;;8.70;4.43;;;7.10;69.30;;;6.82;51.04;95614.94;5019425;28;20661;-79
2021/04/23 06:33:07;;;;;;;9.60;4.65;;;7.20;68.40;;;6.92;50.85;95631.31;5053283;28;20216;-78
2021/04/23 06:35:34;;;;;;;9.43;5.55;;;7.30;68.30;;;7.02;50.75;95626.03;5053894;28;20253;-78
2021/04/23 06:38:01;;;;;;;9.23;4.97;;;7.40;68.20;;;7.11;50.73;95627.69;5036466;28;20220;-78
2021/04/23 06:40:28;;;;;;;8.52;4.85;;;7.50;68.20;;;7.18;50.73;95620.09;5036775;28;20287;-78
2021/04/23 06:42:55;;;;;;;11.00;4.88;;;7.60;68.40;;;7.33;50.73;95630.78;5036357;28;20285;-78
2021/04/23 06:45:23;;;;;;;9.30;5.28;;;7.70;68.20;;;7.40;50.34;95634.41;5052885;28;20196;-78
2021/04/23 06:47:50;;;;;;;13.45;5.75;;;7.80;68.10;;;7.43;50.33;95631.47;5036351;28;20223;-78
2021/04/23 06:50:22;;;;;;;13.10;5.78;;;7.80;67.90;;;7.48;50.08;95639.69;5036551;28;20659;-79
2021/04/23 06:52:49;;;;;;;11.55;5.63;;;7.90;67.80;;;7.53;49.86;95633.97;5036508;28;20224;-79
2021/04/23 06:55:18;;;;;;;13.15;5.43;;;8.00;67.80;;;7.58;50.00;95633.53;5052577;28;20614;-78
2021/04/23 06:57:44;;;;;;;14.35;5.47;;;8.00;67.80;;;7.61;49.08;95636.66;5036219;28;20216;-79
2021/04/23 07:00:30;;;;;;;10.10;5.13;;;8.10;67.40;;;7.66;49.46;95637.00;5036580;28;20211;-78
2021/04/23 07:02:57;;;;;;;12.40;4.97;;;8.10;67.30;;;7.80;49.53;95640.00;5042391;28;20232;-79
2021/04/23 07:05:25;;;;;;;8.57;4.72;;;8.20;67.70;;;7.89;49.38;95638.25;5014195;28;20236;-78
2021/04/23 07:07:54;;;;;;;8.88;5.00;;;8.30;67.40;;;7.91;48.68;95649.34;5032774;28;20251;-79
2021/04/23 07:10:26;;;;;;;9.15;5.07;;;8.30;67.00;;;7.96;48.89;95641.88;5016393;28;20270;-78
2021/04/23 07:12:53;;;;;;;8.45;4.80;;;8.40;66.80;;;7.98;48.53;95632.91;5032770;28;20212;-79
2021/04/23 07:15:24;;;;;;;7.88;4.53;;;8.40;66.90;;;7.98;48.34;95632.06;4999790;28;20742;-79
2021/04/23 07:17:55;;;;;;;9.13;4.40;;;8.50;66.70;;;8.04;48.58;95636.66;5032207;28;20216;-78
2021/04/23 07:20:41;;;;;;;9.40;4.55;;;8.50;66.80;;;8.13;49.22;95634.91;5019044;28;20239;-78
2021/04/23 07:23:10;;;;;;;12.32;5.15;;;8.50;67.10;;;8.23;49.20;95627.75;5015500;28;20776;-78
2021/04/23 07:25:37;;;;;;;9.20;4.80;;;8.60;66.90;;;8.30;48.56;95627.91;5032374;28;20295;-79
2021/04/23 07:28:05;;;;;;;11.13;4.85;;;8.60;66.80;;;8.44;47.85;95629.91;5022739;28;20245;-79
2021/04/23 07:30:35;;;;;;;8.65;4.90;;;8.70;66.60;;;8.55;47.96;95628.81;5026718;28;20201;-78
2021/04/23 07:33:05;;;;;;;9.32;5.05;;;8.80;66.50;;;8.60;47.29;95637.00;5051995;28;20212;-79
2021/04/23 07:35:33;;;;;;;8.15;4.63;;;8.90;66.10;;;8.68;47.08;95630.16;5033943;28;20207;-78
2021/04/23 07:38:01;;;;;;;8.30;4.25;;;9.00;66.20;;;8.78;47.29;95639.47;5029138;28;20227;-79
2021/04/23 07:40:30;;;;;;;7.63;4.40;;;9.00;66.20;;;8.88;46.89;95634.09;5014362;28;20617;-78
2021/04/23 07:43:00;;;;;;;8.23;4.90;;;9.20;66.00;;;8.90;46.38;95639.97;5034165;28;20283;-79
2021/04/23 07:45:38;;;;;;;6.70;3.78;;;9.20;65.60;;;8.95;45.96;95639.50;5023743;28;20253;-78
2021/04/23 07:48:09;;;;;;;8.57;4.80;;;9.30;65.50;;;8.99;46.18;95634.75;5027106;28;20701;-79
2021/04/23 07:50:37;;;;;;;7.15;4.30;;;9.30;65.30;;;9.10;46.22;95637.84;5009245;28;20204;-78
2021/04/23 07:53:03;;;;;;;9.65;3.95;;;9.40;65.40;;;9.19;46.39;95643.91;5039173;28;20733;-79
2021/04/23 07:55:31;;;;;;;7.38;4.28;;;9.40;65.60;;;9.28;45.88;95632.44;5041191;28;20207;-79
2021/04/23 07:57:58;;;;;;;9.23;4.50;;;9.50;65.40;;;9.37;45.62;95632.44;5017286;28;20217;-79
2021/04/23 08:00:26;;;;;;;8.07;4.63;;;9.60;65.20;;;9.40;45.38;95632.91;5023298;28;20671;-80
2021/04/23 08:02:54;;;;;;;8.02;4.53;;;9.60;64.80;;;9.47;45.23;95632.25;5040930;28;20233;-79
2021/04/23 08:05:25;;;;;;;10.57;5.05;;;9.70;64.70;;;9.54;44.54;95634.00;5017799;28;20188;-78
2021/04/23 08:08:05;;;;;;;9.15;5.45;;;9.80;64.80;;;9.64;44.90;95639.06;5051558;28;20219;-79
2021/04/23 08:10:33;;;;;;;8.68;5.28;;;9.80;64.80;;;9.73;43.97;95637.28;5024492;28;20255;-80
2021/04/23 08:13:01;;;;;;;8.25;4.55;;;9.90;64.50;;;9.78;44.21;95634.94;5023386;28;20224;-78
2021/04/23 08:15:29;;;;;;;10.45;4.75;;;10.00;63.00;;;9.83;44.46;95623.97;5030824;28;20291;-79
2021/04/23 08:18:00;;;;;;;13.30;4.70;;;10.10;63.00;;;9.99;45.57;95628.31;5031537;28;20212;-79
2021/04/23 08:20:28;;;;;;;10.52;5.22;;;10.20;63.60;;;10.17;44.93;95641.19;5016413;28;20574;-78
2021/04/23 08:22:56;;;;;;;6.78;4.90;;;10.20;63.20;;;10.23;44.62;95633.44;5030890;28;20240;-79
2021/04/23 08:25:23;;;;;;;9.35;4.90;;;10.30;63.10;;;10.34;44.30;95637.50;5014585;28;20192;-80
2021/04/23 08:27:51;;;;;;;10.18;4.68;;;10.40;63.30;;;10.44;44.83;95633.88;5031275;28;20217;-78
2021/04/23 08:30:24;;;;;;;9.85;5.13;;;10.50;63.30;;;10.49;43.98;95621.06;5050742;28;20559;-79
2021/04/23 08:32:53;;;;;;;8.32;4.95;;;10.60;62.90;;;10.53;42.32;95638.06;5051219;28;20212;-78
2021/04/23 08:35:22;;;;;;;7.50;5.43;;;10.70;62.10;;;10.48;42.08;95640.41;5050113;28;20202;-79
2021/04/23 08:37:49;;;;;;;7.53;5.10;;;10.70;61.60;;;10.45;43.25;95619.75;5050909;28;20215;-79
2021/04/23 08:40:19;;;;;;;10.23;5.47;;;10.80;62.10;;;10.39;42.24;95650.13;5067732;28;20196;-80
2021/04/23 08:42:46;;;;;;;9.32;5.43;;;10.70;61.50;;;10.38;42.59;95627.50;5067664;28;20223;-79
2021/04/23 08:45:19;;;;;;;8.95;5.10;;;10.70;61.50;;;10.37;42.94;95636.34;5067219;28;20272;-80
2021/04/23 08:47:47;;;;;;;8.35;5.53;;;10.70;61.50;;;10.37;42.92;95626.69;5050542;28;20248;-79
2021/04/23 08:50:22;;;;;;;10.30;5.47;;;10.70;61.50;;;10.32;42.42;95620.31;5050732;28;20654;-80
2021/04/23 08:52:50;;;;;;;8.43;5.03;;;10.80;61.40;;;10.36;42.51;95635.56;5050983;28;20220;-80
2021/04/23 08:55:21;;;;;;;8.18;5.18;;;10.80;61.40;;;10.40;42.39;95617.66;5050860;28;20213;-79
2021/04/23 08:58:13;;;;;;;12.80;5.03;;;10.80;61.30;;;10.46;42.39;95616.97;5053799;28;20231;-79
2021/04/23 09:00:41;;;;;;;9.68;5.60;;;10.80;62.40;;;10.54;41.46;95614.28;5034045;28;20231;-78
2021/04/23 09:03:11;;;;;;;9.15;4.88;;;10.90;60.90;;;10.59;42.14;95619.00;5067349;28;20223;-79
2021/04/23 09:05:39;;;;;;;7.82;4.68;;;10.90;61.30;;;10.69;42.15;95600.41;5050820;28;20211;-80
2021/04/23 09:08:11;;;;;;;9.20;4.68;;;10.90;61.50;;;10.75;41.62;95610.22;5050636;28;20221;-79
2021/04/23 09:10:44;;;;;;;10.00;4.70;;;11.00;60.90;;;10.77;40.30;95616.09;5042033;28;20196;-79
2021/04/23 09:13:13;;;;;;;7.70;4.82;;;11.00;60.10;;;10.76;40.68;95630.22;5024481;28;20246;-79
2021/04/23 09:15:44;;;;;;;7.10;5.00;;;11.10;60.40;;;10.80;41.06;95610.53;5007365;28;20288;-79
2021/04/23 09:18:24;;;;;;;8.70;4.75;;;11.20;60.40;;;10.88;41.15;95612.25;5033911;28;20220;-79
2021/04/23 09:21:03;;;;;;;8.45;4.82;;;11.10;60.40;;;10.91;40.91;95625.00;5032708;28;20572;-79
2021/04/23 09:23:30;;;;;;;11.57;4.80;;;11.20;60.30;;;10.97;40.67;95603.31;5034048;28;20230;-80
2021/04/23 09:25:59;;;;;;;10.38;5.20;;;11.20;60.20;;;11.05;40.83;95600.63;5032188;28;20208;-80
2021/04/23 09:28:41;;;;;;;10.95;4.95;;;11.30;60.10;;;11.07;39.98;95604.88;5027734;28;20578;-79
2021/04/23 09:31:25;;;;;;;8.15;5.22;;;11.40;59.90;;;11.10;39.35;95607.97;5014257;28;20258;-79
2021/04/23 09:33:55;;;;;;;9.77;5.05;;;11.40;59.50;;;11.10;39.98;95604.53;5046789;28;20236;-79
2021/04/23 09:36:46;;;;;;;10.65;5.40;;;11.40;59.40;;;11.09;39.98;95598.44;5031304;28;20698;-79
2021/04/23 09:39:25;;;;;;;10.80;5.15;;;11.40;59.30;;;11.08;40.11;95588.94;5029138;28;20686;-79
2021/04/23 09:42:00;;;;;;;6.43;4.63;;;11.40;59.60;;;11.23;40.74;95611.78;5044789;28;20212;-79
2021/04/23 09:44:31;;;;;;;5.90;4.38;;;11.40;60.00;;;11.27;39.43;95602.56;5028591;28;20208;-80
2021/04/23 09:47:00;;;;;;;6.05;4.43;;;11.50;58.80;;;11.28;39.79;95610.28;5045155;28;20234;-80
2021/04/23 09:49:28;;;;;;;9.90;4.75;;;11.50;59.40;;;11.34;39.83;95595.63;5044641;28;20196;-80
2021/04/23 09:51:56;;;;;;;8.10;4.22;;;11.50;59.30;;;11.46;40.28;95599.44;5044567;28;20597;-80
2021/04/23 09:54:25;;;;;;;7.13;4.88;;;11.60;59.80;;;11.56;39.60;95578.16;5032319;28;20220;-78
2021/04/23 09:56:53;;;;;;;6.80;4.03;;;11.70;59.00;;;11.65;40.06;95594.63;5013770;28;20266;-79
2021/04/23 09:59:29;;;;;;;14.45;4.93;;;11.70;59.70;;;11.72;38.70;95594.69;5014086;28;20195;-79
2021/04/23 10:01:59;;;;;;;8.23;5.28;;;11.80;58.20;;;11.74;38.46;95592.72;5017331;28;20234;-79
2021/04/23 10:04:33;;;;;;;9.02;4.75;;;11.90;58.10;;;11.79;39.83;95579.84;5034066;28;20337;-79
2021/04/23 10:07:30;;;;;;;9.35;4.95;;;11.90;59.10;;;11.85;39.38;95595.72;5034652;28;20231;-79
2021/04/23 10:10:09;;;;;;;8.48;4.97;;;12.00;58.80;;;11.85;37.85;95589.63;5031561;28;20685;-79
2021/04/23 10:12:49;;;;;;;8.85;4.43;;;12.00;57.40;;;11.87;38.68;95584.19;5049309;28;20766;-79
2021/04/23 10:15:29;;;;;;;8.27;5.15;;;12.10;57.90;;;11.90;38.46;95589.06;5013015;28;20232;-78
2021/04/23 10:18:05;;;;;;;8.27;4.80;;;12.10;58.00;;;11.99;39.54;95601.16;5020689;28;20310;-79
2021/04/23 10:20:40;;;;;;;8.77;4.95;;;12.10;59.00;;;12.05;39.06;95583.81;5030873;28;20188;-79
2021/04/23 10:23:10;;;;;;;7.90;4.78;;;12.20;58.40;;;12.11;37.65;95594.44;5022579;28;20235;-78
2021/04/23 10:25:38;;;;;;;11.52;4.60;;;12.30;57.60;;;12.19;37.69;95585.59;5015308;28;20239;-79
2021/04/23 10:28:09;;;;;;;7.72;4.28;;;12.30;57.30;;;12.24;37.93;95585.06;5040922;28;20232;-80
2021/04/23 10:30:41;;;;;;;8.40;4.57;;;12.40;57.20;;;12.27;38.64;95585.50;5047722;28;20208;-79
2021/04/23 10:33:17;;;;;;;10.73;4.80;;;12.40;58.00;;;12.38;39.04;95583.38;5027699;28;20705;-80
2021/04/23 10:35:48;;;;;;;8.02;3.95;;;12.50;58.30;;;12.46;37.70;95581.47;5031549;28;20246;-80
2021/04/23 10:38:18;;;;;;;7.05;4.32;;;12.50;56.90;;;12.58;37.78;95599.38;5047884;28;20751;-79
2021/04/23 10:40:56;;;;;;;6.82;4.20;;;12.60;56.90;;;12.61;36.90;95588.50;5034520;28;20203;-79